Time;durP1;ratioP1;P1;durP2;ratioP2;P2;SDS_P1;SDS_P2;PMS_P1;PMS_P2;Temp;Humidity;BMP_temperature;BMP_pressure;BME280_temperature;BME280_humidity;BME280_pressure;Samples;Min_cycle;Max_cycle;Signal;HPM_P1;HPM_P2
2022/04/06 00:01:38;;;;;;;8.38;3.90;;;;;;;8.28;100.00;98123.56;4972442;28;20502;-70
2022/04/06 00:04:04;;;;;;;5.97;3.88;;;;;;;7.95;100.00;98064.22;4972254;28;20073;-71
2022/04/06 00:06:30;;;;;;;7.20;4.50;;;;;;;8.35;100.00;98116.28;4974626;28;20377;-71
2022/04/06 00:08:55;;;;;;;6.95;3.97;;;;;;;8.34;100.00;98120.84;4975333;28;20039;-70
2022/04/06 00:11:20;;;;;;;6.85;3.88;;;;;;;8.34;100.00;98112.75;4972043;28;20383;-70
2022/04/06 00:13:46;;;;;;;7.57;4.28;;;;;;;8.38;100.00;98113.16;4974813;28;20027;-70
2022/04/06 00:16:11;;;;;;;6.38;3.85;;;;;;;8.22;100.00;98089.31;4974750;28;20097;-70
2022/04/06 00:18:36;;;;;;;5.28;3.92;;;;;;;8.24;100.00;98100.72;4969971;28;20476;-71
2022/04/06 00:21:02;;;;;;;6.45;4.05;;;;;;;8.34;100.00;98109.25;4974716;28;20027;-71
2022/04/06 00:23:28;;;;;;;5.22;3.70;;;;;;;8.26;100.00;98085.19;4975864;28;20038;-71
2022/04/06 00:25:55;;;;;;;7.95;3.85;;;;;;;8.27;100.00;98076.06;4975475;28;20037;-70
2022/04/06 00:28:21;;;;;;;5.97;4.05;;;;;;;8.32;100.00;98089.75;4972931;28;20022;-70
2022/04/06 00:30:46;;;;;;;5.63;3.45;;;;;;;8.41;100.00;98104.72;4974878;28;20026;-70
2022/04/06 00:33:11;;;;;;;6.03;3.92;;;;;;;8.55;100.00;98105.56;4972751;28;20023;-70
2022/04/06 00:35:36;;;;;;;4.88;3.75;;;;;;;8.51;100.00;98098.91;4974007;28;20027;-70
2022/04/06 00:38:04;;;;;;;5.30;3.65;;;;;;;8.50;100.00;98103.47;4971965;28;20031;-70
2022/04/06 00:40:32;;;;;;;5.88;3.47;;;;;;;8.53;100.00;98103.06;4974262;28;20023;-70
2022/04/06 00:42:58;;;;;;;5.55;3.60;;;;;;;8.49;100.00;98085.66;4975676;28;20115;-70
2022/04/06 00:45:24;;;;;;;6.47;4.10;;;;;;;8.58;100.00;98093.53;4972525;28;20114;-70
2022/04/06 00:47:50;;;;;;;5.55;3.33;;;;;;;8.56;100.00;98099.94;4972863;28;20026;-71
2022/04/06 00:50:17;;;;;;;6.57;4.47;;;;;;;8.50;100.00;98071.13;4974609;28;20094;-70
2022/04/06 00:52:43;;;;;;;5.97;3.90;;;;;;;8.62;100.00;98083.97;4969301;28;20031;-70
2022/04/06 00:55:09;;;;;;;7.15;3.90;;;;;;;8.66;100.00;98090.63;4974543;28;20054;-70
2022/04/06 00:57:35;;;;;;;5.90;3.97;;;;;;;8.65;100.00;98079.00;4972645;28;20062;-70
2022/04/06 01:00:02;;;;;;;4.95;3.33;;;;;;;8.62;100.00;98067.78;4973414;28;20396;-70
2022/04/06 01:02:27;;;;;;;4.60;3.10;;;;;;;8.52;100.00;98058.28;4971814;28;20467;-70
2022/04/06 01:04:52;;;;;;;3.78;2.88;;;;;;;8.64;100.00;98076.50;4971464;28;20027;-70
2022/04/06 01:07:20;;;;;;;4.35;3.30;;;;;;;8.62;100.00;98074.03;4973311;28;20507;-70
2022/04/06 01:09:46;;;;;;;4.78;3.15;;;;;;;8.47;100.00;98041.06;4974310;28;20042;-70
2022/04/06 01:12:12;;;;;;;4.85;2.97;;;;;;;8.52;100.00;98041.28;4973576;28;20023;-70
2022/04/06 01:14:38;;;;;;;7.97;3.13;;;;;;;8.69;100.00;98074.84;4970753;28;20089;-70
2022/04/06 01:17:07;;;;;;;4.90;3.42;;;;;;;8.69;100.00;98068.63;4971171;28;20126;-70
2022/04/06 01:19:34;;;;;;;5.27;3.17;;;;;;;8.81;100.00;98075.03;4974959;28;20023;-70
2022/04/06 01:22:00;;;;;;;6.45;3.42;;;;;;;8.53;100.00;98051.81;4965891;28;20031;-70
2022/04/06 01:24:26;;;;;;;5.85;3.58;;;;;;;8.62;100.00;98054.31;4975014;28;20063;-70
2022/04/06 01:26:51;;;;;;;7.30;4.00;;;;;;;8.66;100.00;98061.78;4972013;28;20481;-70
2022/04/06 01:29:16;;;;;;;5.85;3.28;;;;;;;8.66;100.00;98056.38;4974464;28;20101;-70
2022/04/06 01:31:42;;;;;;;8.07;3.63;;;;;;;8.77;100.00;98066.53;4969861;28;20448;-71
2022/04/06 01:34:07;;;;;;;5.38;3.05;;;;;;;8.66;100.00;98055.56;4973290;28;20033;-70
2022/04/06 01:36:32;;;;;;;5.25;3.47;;;;;;;8.54;100.00;98055.34;4971005;28;20030;-70
2022/04/06 01:38:57;;;;;;;4.90;3.10;;;;;;;8.54;100.00;98060.75;4973380;28;20037;-70
2022/04/06 01:41:30;;;;;;;6.43;3.15;;;;;;;8.50;100.00;98056.81;4973195;28;20114;-70
2022/04/06 01:43:55;;;;;;;5.93;3.67;;;;;;;8.52;100.00;98050.19;4971725;28;20481;-70
2022/04/06 01:46:20;;;;;;;5.22;3.42;;;;;;;8.35;100.00;98032.72;4971293;28;20115;-70
2022/04/06 01:54:13;;;;;;;7.90;3.75;;;;;;;8.43;100.00;98059.50;4972137;28;20522;-70
2022/04/06 01:56:39;;;;;;;6.07;3.92;;;;;;;8.46;100.00;98050.16;4963335;28;20058;-70
2022/04/06 01:59:04;;;;;;;5.18;3.60;;;;;;;8.42;100.00;98057.84;4972056;28;20029;-70
2022/04/06 02:01:29;;;;;;;5.45;3.85;;;;;;;8.40;100.00;98042.94;4966695;28;20033;-70
2022/04/06 02:03:55;;;;;;;7.20;3.97;;;;;;;8.37;100.00;98027.16;4972779;28;20065;-70
2022/04/06 02:06:21;;;;;;;8.27;3.67;;;;;;;8.43;100.00;98048.72;4973166;28;20046;-70
2022/04/06 02:08:46;;;;;;;5.50;4.05;;;;;;;8.33;100.00;98032.97;4972684;28;20023;-70
2022/04/06 02:11:11;;;;;;;4.80;3.70;;;;;;;8.32;100.00;98025.06;4971590;28;20042;-70
2022/04/06 02:13:39;;;;;;;7.00;4.25;;;;;;;8.35;100.00;98030.03;4975812;28;20092;-70
2022/04/06 02:16:04;;;;;;;5.63;4.03;;;;;;;8.28;100.00;98030.06;4977636;28;20030;-71
2022/04/06 02:18:30;;;;;;;8.43;4.75;;;;;;;8.21;100.00;98012.22;5019018;23;20041;-72
2022/04/06 02:20:55;;;;;;;5.45;4.22;;;;;;;8.32;100.00;98022.38;5021261;28;20030;-72
2022/04/06 02:23:22;;;;;;;7.43;4.35;;;;;;;8.33;100.00;98032.09;5017609;28;20497;-73
2022/04/06 02:25:47;;;;;;;9.35;4.25;;;;;;;8.40;100.00;98032.16;5014948;28;20120;-74
2022/04/06 02:28:12;;;;;;;7.80;4.20;;;;;;;8.38;100.00;98032.31;5050109;28;20163;-72
2022/04/06 02:30:38;;;;;;;7.93;3.90;;;;;;;8.37;100.00;98027.97;5022777;28;20029;-73
2022/04/06 02:33:03;;;;;;;6.63;4.40;;;;;;;8.36;100.00;98031.72;5011893;28;20030;-72
2022/04/06 02:35:28;;;;;;;6.70;4.65;;;;;;;8.22;100.00;98019.25;5035241;28;20018;-72
2022/04/06 02:37:54;;;;;;;8.20;4.85;;;;;;;8.30;100.00;98029.81;5012681;28;20437;-73
2022/04/06 02:40:19;;;;;;;9.82;4.63;;;;;;;8.32;100.00;98030.47;5016750;28;20022;-72
2022/04/06 02:42:45;;;;;;;8.50;4.63;;;;;;;8.31;100.00;98028.81;5012991;28;20061;-72
2022/04/06 02:45:10;;;;;;;7.68;4.85;;;;;;;8.30;100.00;98022.56;5023446;28;20453;-72
2022/04/06 02:47:36;;;;;;;6.45;4.20;;;;;;;8.24;100.00;98004.53;5010466;28;20088;-72
2022/04/06 02:50:03;;;;;;;9.05;4.63;;;;;;;8.27;100.00;98012.22;5013669;28;20033;-72
2022/04/06 02:52:29;;;;;;;7.38;4.25;;;;;;;8.31;100.00;98018.03;5024860;28;20386;-72
2022/04/06 02:54:55;;;;;;;6.30;3.90;;;;;;;8.22;100.00;97992.31;5013551;28;20029;-71
2022/04/06 02:57:20;;;;;;;7.07;4.30;;;;;;;8.35;100.00;98008.47;5013279;28;20026;-73
2022/04/06 02:59:45;;;;;;;7.25;4.35;;;;;;;8.29;100.00;97993.97;5012165;28;20367;-77
2022/04/06 03:02:10;;;;;;;5.40;3.92;;;;;;;8.26;100.00;97975.53;5007397;28;20026;-76
2022/04/06 03:04:36;;;;;;;6.28;3.70;;;;;;;8.27;100.00;97996.03;5012169;28;20477;-77
2022/04/06 03:07:01;;;;;;;7.90;4.25;;;;;;;8.29;100.00;97982.38;5012613;28;20126;-76
2022/04/06 03:09:26;;;;;;;8.25;3.97;;;;;;;8.36;100.00;98002.06;5014772;28;20021;-75
2022/04/06 03:11:52;;;;;;;6.97;4.25;;;;;;;8.27;100.00;97981.75;5027976;28;20034;-78
2022/04/06 03:14:17;;;;;;;6.60;4.00;;;;;;;8.31;100.00;97981.13;5042149;28;20021;-73
2022/04/06 03:16:42;;;;;;;7.50;4.43;;;;;;;8.20;100.00;97967.44;5041567;28;20030;-74
2022/04/06 03:19:07;;;;;;;6.47;4.15;;;;;;;8.27;100.00;97974.47;5028134;28;20025;-80
2022/04/06 03:21:33;;;;;;;7.13;4.53;;;;;;;8.28;100.00;97962.69;5042868;28;20037;-80
2022/04/06 03:23:58;;;;;;;11.07;4.65;;;;;;;8.19;100.00;97952.31;5039651;28;20014;-73
2022/04/06 03:26:23;;;;;;;10.32;5.30;;;;;;;8.27;100.00;97954.78;5035022;28;20036;-73
2022/04/06 03:28:49;;;;;;;6.50;4.32;;;;;;;8.36;100.00;97967.03;5033898;28;20045;-81
2022/04/06 03:31:14;;;;;;;6.57;4.43;;;;;;;8.13;100.00;97938.66;5052899;28;20079;-76
2022/04/06 03:33:39;;;;;;;6.07;4.70;;;;;;;8.41;100.00;97982.56;5030608;28;20073;-79
2022/04/06 03:36:05;;;;;;;6.35;4.45;;;;;;;8.20;100.00;97938.66;5039024;28;20014;-78
2022/04/06 03:38:30;;;;;;;6.93;4.15;;;;;;;8.30;100.00;97962.47;5040205;28;20041;-78
2022/04/06 03:40:55;;;;;;;7.88;4.70;;;;;;;8.25;100.00;97956.88;5038393;28;20032;-75
2022/04/06 03:43:21;;;;;;;5.95;4.50;;;;;;;8.33;100.00;97960.19;5033251;28;20097;-76
2022/04/06 03:45:46;;;;;;;6.63;4.95;;;;;;;8.34;100.00;97958.31;5028292;28;20018;-77
2022/04/06 03:48:12;;;;;;;6.78;4.65;;;;;;;8.36;100.00;97958.94;5013816;28;20030;-77
2022/04/06 03:50:38;;;;;;;6.70;4.53;;;;;;;8.27;100.00;97952.91;5014127;28;20041;-80
2022/04/06 03:53:03;;;;;;;6.97;4.93;;;;;;;8.39;100.00;97961.25;5026636;28;20045;-74
2022/04/06 03:55:28;;;;;;;7.13;4.68;;;;;;;8.42;100.00;97965.38;5026583;28;20036;-75
2022/04/06 03:57:54;;;;;;;8.13;4.28;;;;;;;8.35;100.00;97949.19;5017582;28;20053;-78
2022/04/06 04:00:19;;;;;;;6.80;4.25;;;;;;;8.32;100.00;97953.13;5018028;28;20022;-79
2022/04/06 04:02:46;;;;;;;7.65;4.50;;;;;;;8.45;100.00;97956.88;5024372;28;20503;-76
2022/04/06 04:05:12;;;;;;;6.43;4.78;;;;;;;8.47;100.00;97969.09;5027378;28;20041;-77
2022/04/06 04:07:37;;;;;;;6.97;4.72;;;;;;;8.49;100.00;97969.72;5019473;28;20044;-76
2022/04/06 04:10:29;;;;;;;9.13;4.15;;;;;;;8.47;100.00;97952.94;5023822;28;20022;-69
2022/04/06 04:13:00;;;;;;;8.43;4.15;;;;;;;8.43;100.00;97957.06;5026499;28;20029;-70
2022/04/06 04:15:26;;;;;;;7.55;4.18;;;;;;;8.46;100.00;97942.34;5028811;28;20048;-70
2022/04/06 04:17:51;;;;;;;8.05;4.15;;;;;;;8.57;100.00;97974.06;5029564;28;20026;-67
2022/04/06 04:20:17;;;;;;;6.13;4.10;;;;;;;8.25;100.00;97927.22;5032387;28;20069;-69
2022/04/06 04:22:42;;;;;;;9.38;4.22;;;;;;;8.55;100.00;97970.75;5030640;28;20038;-65
2022/04/06 04:25:08;;;;;;;6.60;4.55;;;;;;;8.53;100.00;97965.56;5036985;28;20052;-69
2022/04/06 04:27:33;;;;;;;6.32;3.95;;;;;;;8.64;100.00;97964.06;5026417;28;20497;-72
2022/04/06 04:29:59;;;;;;;8.18;4.70;;;;;;;8.52;100.00;97958.53;5020714;28;20060;-77
2022/04/06 04:32:24;;;;;;;8.07;4.82;;;;;;;8.40;100.00;97940.50;5022295;28;20033;-78
2022/04/06 04:34:49;;;;;;;7.57;4.90;;;;;;;8.50;100.00;97962.47;5011151;28;20110;-77
2022/04/06 04:37:15;;;;;;;7.78;4.50;;;;;;;8.35;100.00;97938.41;5014655;28;20040;-72
2022/04/06 04:39:40;;;;;;;7.80;4.10;;;;;;;8.59;100.00;97965.75;5019394;28;20112;-74
2022/04/06 04:42:06;;;;;;;4.93;3.67;;;;;;;8.48;100.00;97943.78;5012072;28;20519;-76
2022/04/06 04:44:31;;;;;;;6.38;4.00;;;;;;;8.48;100.00;97941.09;5015063;28;20032;-75
2022/04/06 04:46:57;;;;;;;6.88;4.22;;;;;;;8.42;100.00;97941.13;5007704;28;20041;-75
2022/04/06 04:49:23;;;;;;;6.90;5.03;;;;;;;8.38;100.00;97923.69;5011269;28;20029;-74
2022/04/06 04:51:48;;;;;;;8.50;4.85;;;;;;;8.48;100.00;97946.50;5012673;28;20025;-74
2022/04/06 04:54:13;;;;;;;5.95;4.10;;;;;;;8.55;100.00;97952.69;5018892;28;20037;-68
2022/04/06 04:56:41;;;;;;;9.65;4.30;;;;;;;8.53;100.00;97953.94;5008215;28;20022;-68
2022/04/06 04:59:07;;;;;;;6.18;4.25;;;;;;;8.52;100.00;97950.44;5012217;28;20030;-68
2022/04/06 05:01:33;;;;;;;5.10;4.05;;;;;;;8.55;100.00;97960.78;5014853;28;20446;-69
2022/04/06 05:03:58;;;;;;;5.65;3.70;;;;;;;8.45;100.00;97932.63;5018962;28;20053;-68
2022/04/06 05:06:23;;;;;;;6.07;4.35;;;;;;;8.44;100.00;97929.09;5010026;28;20022;-69
2022/04/06 05:08:49;;;;;;;6.60;3.92;;;;;;;8.47;100.00;97950.25;5020575;28;20026;-70
2022/04/06 05:11:15;;;;;;;6.65;4.65;;;;;;;8.58;100.00;97969.50;5020285;28;20018;-69
2022/04/06 05:13:41;;;;;;;5.22;3.80;;;;;;;8.44;100.00;97931.78;5009419;28;20438;-68
2022/04/06 05:16:06;;;;;;;6.93;4.57;;;;;;;8.62;100.00;97962.63;5013599;28;20022;-69
2022/04/06 05:18:31;;;;;;;7.65;4.07;;;;;;;8.62;100.00;97954.53;5008273;28;20053;-68
2022/04/06 05:20:57;;;;;;;6.60;4.40;;;;;;;8.66;100.00;97962.00;5018280;28;20038;-68
2022/04/06 05:23:23;;;;;;;6.15;4.38;;;;;;;8.69;100.00;97952.66;5015146;28;20032;-68
2022/04/06 05:25:48;;;;;;;7.50;4.70;;;;;;;8.66;100.00;97951.22;5018140;28;20057;-68
2022/04/06 05:28:15;;;;;;;9.13;5.40;;;;;;;8.64;100.00;97947.91;5019436;28;20033;-68
2022/04/06 05:30:41;;;;;;;13.65;6.78;;;;;;;8.59;100.00;97918.03;5014545;28;20026;-71
2022/04/06 05:33:07;;;;;;;16.98;8.60;;;;;;;8.69;100.00;97944.56;5013511;28;20039;-74
2022/04/06 05:35:32;;;;;;;11.25;7.28;;;;;;;8.60;100.00;97935.06;5002446;28;20041;-68
2022/04/06 05:37:57;;;;;;;8.27;5.05;;;;;;;8.54;100.00;97934.88;5008837;28;20034;-69
2022/04/06 05:40:23;;;;;;;7.95;4.05;;;;;;;8.66;100.00;97931.53;5016673;28;20494;-69
2022/04/06 05:42:49;;;;;;;5.55;3.58;;;;;;;8.77;100.00;97947.84;5010427;28;20422;-68
2022/04/06 05:45:15;;;;;;;4.57;2.92;;;;;;;8.78;100.00;97932.53;5014343;28;20017;-67
2022/04/06 05:47:42;;;;;;;5.45;3.22;;;;;;;8.84;100.00;97942.44;5006975;28;20450;-69
2022/04/06 05:50:09;;;;;;;5.80;3.78;;;;;;;8.99;100.00;97942.19;5011949;28;20036;-68
2022/04/06 05:52:35;;;;;;;5.32;3.45;;;;;;;9.14;100.00;97948.16;5029816;28;20601;-69
2022/04/06 05:55:00;;;;;;;6.10;3.75;;;;;;;9.10;100.00;97951.47;5018653;28;20120;-69
2022/04/06 05:57:26;;;;;;;5.65;3.38;;;;;;;9.29;100.00;97950.53;5005204;28;20046;-69
2022/04/06 05:59:51;;;;;;;6.65;3.47;;;;;;;9.28;100.00;97940.78;5010990;28;20022;-71
2022/04/06 06:02:18;;;;;;;4.60;3.03;;;;;;;9.43;100.00;97956.69;5002157;28;20022;-74
2022/04/06 06:04:44;;;;;;;5.53;3.17;;;;;;;9.43;100.00;97925.13;5020203;28;20014;-74
2022/04/06 06:07:10;;;;;;;4.78;2.88;;;;;;;9.59;100.00;97944.56;5012297;28;20051;-75
2022/04/06 06:09:36;;;;;;;4.07;2.80;;;;;;;9.71;100.00;97950.06;5013074;28;20026;-78
2022/04/06 06:12:03;;;;;;;6.65;3.40;;;;;;;9.74;98.93;97947.75;5013789;28;20108;-79
2022/04/06 06:14:29;;;;;;;3.47;2.58;;;;;;;9.81;99.75;97953.13;5025176;28;20022;-77
2022/04/06 06:16:54;;;;;;;4.72;2.85;;;;;;;9.76;98.26;97931.34;5026270;28;20497;-77
2022/04/06 06:19:20;;;;;;;4.95;3.58;;;;;;;9.66;98.50;97919.13;5004316;28;20529;-78
2022/04/06 06:21:45;;;;;;;5.93;2.63;;;;;;;9.85;98.14;97935.41;5010294;28;20385;-77
2022/04/06 06:24:11;;;;;;;7.65;3.22;;;;;;;9.88;97.10;97925.00;5009830;28;20454;-77
2022/04/06 06:26:37;;;;;;;5.63;3.10;;;;;;;10.04;97.44;97945.25;5021487;28;20025;-72
2022/04/06 06:29:03;;;;;;;4.63;3.13;;;;;;;9.85;97.04;97927.31;5008147;28;20026;-78
2022/04/06 06:31:29;;;;;;;5.93;3.22;;;;;;;9.93;96.83;97931.59;5013292;28;20501;-80
2022/04/06 06:33:56;;;;;;;5.68;3.10;;;;;;;10.01;96.98;97931.34;5013583;28;20021;-83
2022/04/06 06:36:23;;;;;;;5.57;2.70;;;;;;;10.02;95.77;97927.59;5016036;28;20022;-78
2022/04/06 06:38:48;;;;;;;5.60;2.90;;;;;;;9.85;96.17;97917.34;4996019;28;20037;-82
2022/04/06 06:41:14;;;;;;;5.85;3.22;;;;;;;10.02;95.63;97914.91;5008120;28;20018;-78
2022/04/06 06:43:39;;;;;;;5.47;3.30;;;;;;;10.22;95.82;97936.34;5018446;28;20083;-78
2022/04/06 06:46:05;;;;;;;4.18;2.72;;;;;;;10.37;95.23;97935.19;5025189;28;20501;-79
2022/04/06 06:48:30;;;;;;;3.80;2.75;;;;;;;10.60;93.92;97938.06;5023901;28;20432;-78
2022/04/06 06:50:55;;;;;;;5.05;2.70;;;;;;;10.70;93.42;97941.09;5027512;28;20025;-75
2022/04/06 06:53:20;;;;;;;6.63;3.00;;;;;;;10.63;92.31;97945.72;5011324;28;20511;-75
2022/04/06 06:55:46;;;;;;;5.30;3.03;;;;;;;10.37;94.12;97924.38;5019513;28;20037;-73
2022/04/06 06:58:11;;;;;;;5.18;3.25;;;;;;;10.50;92.66;97918.84;5020872;28;20078;-77
2022/04/06 07:00:37;;;;;;;2.65;2.25;;;;;;;10.56;92.53;97930.63;5023117;28;20026;-77
2022/04/06 07:03:02;;;;;;;5.35;2.78;;;;;;;10.50;93.12;97930.47;5012481;28;20112;-76
2022/04/06 07:05:28;;;;;;;2.95;2.10;;;;;;;10.46;91.35;97912.22;5024874;28;20104;-71
2022/04/06 07:07:57;;;;;;;6.78;2.58;;;;;;;10.70;91.38;97932.97;5008761;28;20038;-71
2022/04/06 07:10:24;;;;;;;3.60;2.13;;;;;;;10.60;90.80;97924.53;5005381;28;20030;-71
2022/04/06 07:12:50;;;;;;;4.60;2.40;;;;;;;10.85;89.21;97926.38;5009171;28;20028;-74
2022/04/06 07:15:16;;;;;;;4.35;2.30;;;;;;;10.84;88.73;97908.47;5033233;28;20018;-76
2022/04/06 07:17:41;;;;;;;4.45;2.35;;;;;;;10.69;89.20;97912.38;5012549;28;20052;-74
2022/04/06 07:20:07;;;;;;;3.65;2.53;;;;;;;10.65;89.09;97905.75;5013192;28;20505;-73
2022/04/06 07:22:33;;;;;;;4.40;2.33;;;;;;;10.78;88.17;97921.03;5020580;28;20036;-76
2022/04/06 07:24:59;;;;;;;4.18;1.90;;;;;;;10.69;86.75;97896.16;5020096;28;20398;-77
2022/04/06 07:27:24;;;;;;;4.88;1.92;;;;;;;10.71;85.69;97915.66;5016607;28;20122;-77
2022/04/06 07:29:49;;;;;;;5.30;1.90;;;;;;;10.83;85.08;97914.94;5020498;28;20441;-77
2022/04/06 07:32:15;;;;;;;6.35;2.13;;;;;;;10.82;86.20;97911.41;5004946;28;20276;-76
2022/04/06 07:34:40;;;;;;;5.45;1.60;;;;;;;10.98;84.83;97896.44;5000381;28;20026;-76
2022/04/06 07:37:05;;;;;;;3.95;1.70;;;;;;;10.94;83.86;97887.09;5012221;28;20113;-77
2022/04/06 07:39:30;;;;;;;2.45;1.40;;;;;;;11.04;83.05;97910.94;5018873;28;20018;-76
2022/04/06 07:41:56;;;;;;;2.15;1.67;;;;;;;11.14;83.27;97914.75;5016455;28;20112;-76
2022/04/06 07:44:22;;;;;;;5.93;1.80;;;;;;;11.24;82.46;97925.03;5014583;28;20022;-77
2022/04/06 07:46:48;;;;;;;1.88;1.42;;;;;;;11.08;82.78;97923.78;5011365;28;20492;-75
2022/04/06 07:49:14;;;;;;;3.40;1.60;;;;;;;11.25;81.21;97926.66;5011153;28;20017;-76
2022/04/06 07:51:39;;;;;;;4.47;1.88;;;;;;;11.32;80.78;97913.88;5019270;28;20025;-77
2022/04/06 07:54:04;;;;;;;3.42;1.45;;;;;;;10.87;80.90;97859.28;5017718;28;20034;-75
2022/04/06 07:56:30;;;;;;;3.88;1.80;;;;;;;11.27;81.28;97891.25;5016013;28;20100;-73
2022/04/06 07:58:55;;;;;;;3.33;1.48;;;;;;;11.28;80.76;97912.66;5010668;28;20037;-73
2022/04/06 08:01:20;;;;;;;6.10;1.90;;;;;;;11.15;80.15;97897.44;5008889;28;20037;-71
2022/04/06 08:03:46;;;;;;;3.88;1.77;;;;;;;11.34;80.57;97905.50;5009655;28;20388;-69
2022/04/06 08:06:11;;;;;;;3.05;1.70;;;;;;;11.38;79.82;97910.22;5013644;28;20021;-69
2022/04/06 08:08:36;;;;;;;3.38;1.95;;;;;;;11.06;79.89;97896.09;5004825;28;20048;-69
2022/04/06 08:11:04;;;;;;;3.28;1.90;;;;;;;11.12;81.38;97918.72;5010824;28;20029;-69
2022/04/06 08:13:29;;;;;;;2.97;1.60;;;;;;;11.17;81.16;97919.69;5010865;28;20034;-69
2022/04/06 08:15:55;;;;;;;3.03;1.70;;;;;;;11.01;80.98;97903.28;5016240;28;20559;-71
2022/04/06 08:18:22;;;;;;;5.60;1.75;;;;;;;11.07;79.95;97910.47;5029872;23;20042;-69
2022/04/06 08:20:47;;;;;;;6.10;1.77;;;;;;;10.97;80.36;97913.69;5031345;28;20097;-71
2022/04/06 08:23:13;;;;;;;1.52;1.40;;;;;;;10.86;80.36;97911.78;5029004;28;20112;-72
2022/04/06 08:25:39;;;;;;;3.00;1.70;;;;;;;11.10;78.83;97900.00;5035076;28;20537;-72
2022/04/06 08:28:05;;;;;;;4.03;1.50;;;;;;;11.41;78.23;97907.06;5018723;28;20391;-74
2022/04/06 08:30:31;;;;;;;2.28;1.48;;;;;;;11.47;76.84;97897.19;4999727;28;20096;-76
2022/04/06 08:32:59;;;;;;;2.28;1.40;;;;;;;11.46;75.65;97890.13;5008483;28;20065;-73
2022/04/06 08:35:25;;;;;;;2.28;1.30;;;;;;;12.46;73.44;97900.13;5000738;28;20080;-72
2022/04/06 08:37:52;;;;;;;3.88;1.73;;;;;;;12.85;72.28;97905.84;5019503;28;20153;-72
2022/04/06 08:40:17;;;;;;;2.33;1.17;;;;;;;12.90;71.62;97886.13;5011341;28;20525;-72
2022/04/06 08:42:44;;;;;;;4.38;1.95;;;;;;;13.19;71.89;97907.88;5006645;28;20065;-72
2022/04/06 08:45:10;;;;;;;2.50;1.30;;;;;;;13.05;72.62;97907.34;5005132;28;20431;-72
2022/04/06 08:47:36;;;;;;;2.85;1.48;;;;;;;12.93;72.75;97912.78;5005373;28;20033;-72
2022/04/06 08:50:03;;;;;;;2.42;1.40;;;;;;;12.69;72.03;97895.75;5011722;28;20026;-73
2022/04/06 08:52:32;;;;;;;2.85;1.13;;;;;;;12.67;73.27;97873.44;5003367;28;20038;-73
2022/04/06 08:54:57;;;;;;;2.78;1.33;;;;;;;12.55;73.04;97902.47;5008374;28;20112;-73
2022/04/06 08:57:23;;;;;;;2.13;1.15;;;;;;;12.08;74.02;97895.22;5006863;28;20179;-73
2022/04/06 08:59:49;;;;;;;1.90;1.45;;;;;;;12.00;75.34;97900.97;5013847;28;20459;-71
2022/04/06 09:02:19;;;;;;;2.60;1.20;;;;;;;11.81;74.81;97892.88;5013961;28;20045;-75
2022/04/06 09:04:52;;;;;;;2.58;1.50;;;;;;;11.40;76.42;97878.34;5009333;28;20380;-73
2022/04/06 09:07:23;;;;;;;5.45;1.88;;;;;;;11.87;76.49;97891.19;5006872;28;20125;-73
2022/04/06 09:09:53;;;;;;;3.38;1.45;;;;;;;11.98;74.86;97897.66;5001825;28;20049;-73
2022/04/06 09:12:21;;;;;;;1.95;1.23;;;;;;;12.23;73.24;97894.72;5006266;28;20033;-73
2022/04/06 09:14:47;;;;;;;4.85;1.10;;;;;;;12.14;72.16;97877.97;5007915;28;20113;-72
2022/04/06 09:17:19;;;;;;;4.97;0.90;;;;;;;11.88;73.28;97889.28;5010530;28;20369;-71
2022/04/06 09:19:49;;;;;;;1.77;1.10;;;;;;;12.04;72.94;97894.00;5003050;28;20151;-73
2022/04/06 09:22:15;;;;;;;6.20;1.40;;;;;;;12.18;71.86;97902.72;4993379;28;20480;-72
2022/04/06 09:24:40;;;;;;;2.45;1.15;;;;;;;12.45;69.93;97886.81;4994018;28;20049;-73
2022/04/06 09:27:06;;;;;;;2.30;1.10;;;;;;;13.43;66.18;97893.13;5009503;28;20057;-73
2022/04/06 09:29:34;;;;;;;3.88;1.70;;;;;;;15.57;59.29;97881.69;5013522;28;20033;-73
2022/04/06 09:32:10;;;;;;;2.03;1.33;;;;;;;16.40;55.00;97883.16;5006636;28;20121;-74
2022/04/06 09:34:37;;;;;;;1.48;1.10;;;;;;;14.93;59.44;97884.25;4999813;28;20014;-75
2022/04/06 09:37:21;;;;;;;1.25;0.90;;;;;;;14.76;60.42;97891.69;5008240;28;20340;-73
2022/04/06 09:39:47;;;;;;;2.55;1.33;;;;;;;14.74;58.83;97875.59;5008283;28;20064;-72
2022/04/06 09:42:20;;;;;;;2.25;1.13;;;;;;;14.65;58.72;97858.88;5013728;28;20058;-73
2022/04/06 09:47:43;;;;;;;1.30;1.00;;;;;;;14.19;58.73;97873.72;5002873;28;20080;-74
2022/04/06 09:50:19;;;;;;;3.25;0.95;;;;;;;13.80;59.14;97851.91;5006220;28;20048;-73
2022/04/06 09:52:45;;;;;;;1.77;0.98;;;;;;;14.44;58.37;97867.81;5004657;28;20384;-73
2022/04/06 09:55:13;;;;;;;4.15;1.00;;;;;;;14.46;58.82;97858.34;5006172;28;20087;-74
2022/04/06 09:57:51;;;;;;;3.15;1.50;;;;;;;15.70;55.81;97863.28;4995769;28;20057;-73
2022/04/06 10:00:19;;;;;;;4.13;1.10;;;;;;;16.24;54.15;97851.41;4995122;28;20141;-73
2022/04/06 10:02:48;;;;;;;1.70;0.90;;;;;;;15.69;52.98;97843.38;5004258;28;20036;-73
2022/04/06 10:05:17;;;;;;;2.38;1.48;;;;;;;15.05;55.20;97846.00;5008435;28;20084;-73
2022/04/06 10:07:43;;;;;;;1.23;0.80;;;;;;;15.18;55.52;97844.78;5001657;28;20125;-73
2022/04/06 10:10:09;;;;;;;0.63;0.50;;;;;;;14.79;56.21;97844.88;4999045;28;20482;-74
2022/04/06 10:12:35;;;;;;;1.27;0.60;;;;;;;14.91;56.28;97826.53;4992307;28;20116;-72
2022/04/06 10:15:02;;;;;;;1.73;1.15;;;;;;;15.11;55.54;97831.34;4999208;28;20795;-74
2022/04/06 10:17:29;;;;;;;1.40;0.85;;;;;;;15.75;54.08;97828.69;4998332;28;20030;-73
2022/04/06 10:20:21;;;;;;;2.05;0.80;;;;;;;15.89;54.11;97829.06;5001578;28;20027;-73
2022/04/06 10:23:25;;;;;;;1.05;0.77;;;;;;;15.89;53.07;97826.34;4990289;28;20132;-72
2022/04/06 10:26:23;;;;;;;1.05;0.70;;;;;;;15.59;55.54;97826.06;5005148;28;20038;-72
2022/04/06 10:28:49;;;;;;;1.88;0.60;;;;;;;15.28;55.54;97810.28;5008310;28;20051;-73
2022/04/06 10:31:22;;;;;;;0.47;0.40;;;;;;;14.64;56.18;97807.41;5017541;28;20113;-72
2022/04/06 10:33:48;;;;;;;1.83;0.50;;;;;;;15.92;52.75;97793.09;5005006;28;20451;-73
2022/04/06 10:36:29;;;;;;;0.90;0.32;;;;;;;16.74;52.05;97814.53;5006807;28;20030;-74
2022/04/06 10:39:04;;;;;;;0.57;0.35;;;;;;;17.11;49.58;97808.94;5002840;28;20509;-73
2022/04/06 10:41:29;;;;;;;0.68;0.38;;;;;;;19.44;45.77;97793.31;5006444;28;20040;-73
2022/04/06 10:43:56;;;;;;;0.60;0.40;;;;;;;19.80;43.49;97787.56;4997459;28;20029;-73
2022/04/06 10:46:40;;;;;;;0.93;0.32;;;;;;;19.59;44.28;97790.44;5004258;28;20032;-73
2022/04/06 10:49:12;;;;;;;0.52;0.40;;;;;;;20.64;41.70;97788.06;4997204;28;20034;-74
2022/04/06 10:51:50;;;;;;;0.40;0.32;;;;;;;20.26;41.73;97782.44;5003998;28;20034;-74
2022/04/06 10:54:15;;;;;;;0.35;0.20;;;;;;;21.75;40.09;97772.19;4997335;28;20113;-74
2022/04/06 10:56:46;;;;;;;1.60;0.52;;;;;;;21.35;39.84;97783.53;5008553;28;20109;-74
2022/04/06 10:59:16;;;;;;;1.90;0.93;;;;;;;20.28;41.96;97769.25;5003755;28;20112;-73
2022/04/06 11:01:45;;;;;;;1.65;1.00;;;;;;;18.42;43.85;97772.75;5012589;28;20029;-72
2022/04/06 11:04:22;;;;;;;1.67;0.75;;;;;;;17.25;46.78;97766.31;5026351;28;20022;-72
2022/04/06 11:06:55;;;;;;;2.38;1.27;;;;;;;17.15;47.14;97768.22;5022956;28;20637;-73
2022/04/06 11:12:19;;;;;;;1.73;0.95;;;;;;;17.28;47.13;97751.28;5004592;28;20029;-76
2022/04/06 11:14:47;;;;;;;1.63;1.02;;;;;;;17.09;47.36;97748.25;5007277;28;20053;-73
2022/04/06 11:19:56;;;;;;;1.25;0.50;;;;;;;17.45;46.55;97738.16;5006344;28;20069;-72
2022/04/06 11:22:22;;;;;;;0.95;0.30;;;;;;;19.61;44.58;97735.31;5006080;28;20029;-72
2022/04/06 11:24:48;;;;;;;1.20;0.40;;;;;;;21.34;40.49;97731.56;5005657;28;20045;-73
2022/04/06 11:27:30;;;;;;;1.83;0.50;;;;;;;22.84;36.72;97704.47;5001297;28;20018;-74
2022/04/06 11:30:15;;;;;;;0.60;0.32;;;;;;;19.23;41.25;97729.56;5005096;28;20030;-74
2022/04/06 11:32:58;;;;;;;1.75;0.45;;;;;;;19.46;42.34;97722.53;5004323;28;20022;-72
2022/04/06 11:35:28;;;;;;;2.03;0.63;;;;;;;19.98;41.68;97731.94;5008266;28;20033;-72
2022/04/06 11:37:54;;;;;;;3.25;0.70;;;;;;;21.16;40.95;97706.50;5008829;28;20033;-73
2022/04/06 11:40:24;;;;;;;1.15;0.60;;;;;;;20.12;40.95;97718.31;5008928;28;20030;-72
2022/04/06 11:42:51;;;;;;;0.60;0.50;;;;;;;20.76;39.22;97717.00;5005452;28;20033;-74
2022/04/06 11:45:23;;;;;;;2.20;0.80;;;;;;;20.70;40.71;97707.22;5004142;28;20049;-72
2022/04/06 11:47:57;;;;;;;0.73;0.30;;;;;;;21.31;40.43;97704.63;5000900;28;20018;-74